Terminal Aerodrome Forecast
Issued by NWS St Louis, MO

Current Version | Previous Version | Text Only | Print | Product List | Glossary On
Versions: 1 2 3 4 5 6 7 8 9 10 11 12 13 14 15 16 17 18 19 20
000
FTUS43 KLSX 290500
TAFCOU
TAF
KCOU 290534Z 2906/3006 VRB02KT P6SM SCT150
     FM291500 05006KT P6SM SCT100
     FM300400 01010KT P6SM OVC100=

USA.gov is the U.S. government's official web portal to all federal, state and local government web resources and services.